Garrison, Missouri
Current Conditions -  °F | °C
As of 3:15 PM on Wednesday 26 Nov 2014 (Local Time) from KFWB Reporting Station
Overcast Overcast  
Wind Chill: 41°   Ceiling: 6500
Heat Index: 46°   Visibility: 10mi
Dew Point: 27°   Wind: 12mph
Humidity: 46%   Direction: 310°NW
Pressure: 30.08"   Gusts: 24mph
Location:  36.84°N, 93.02°W
Report Text: KFWB 262115Z AUTO 31010G21KT 10SM SCT050 OVC065 08/M03 A3008 RMK AO2
Loading
Personal Weather Stations






























Interactive Weather Map New forecast layout! Learn more

10-Day Weather Forecast

Advertisements
Track Severe Weather on mobile